createdAt,value
2018-12-08T00:00:35.625Z,1.50
2018-12-08T00:03:04.420Z,1.60
2018-12-08T00:05:32.865Z,1.83
2018-12-08T00:08:02.232Z,1.87
2018-12-08T00:10:31.615Z,1.37
2018-12-08T00:13:00.939Z,1.40
2018-12-08T00:15:29.210Z,1.60
2018-12-08T00:17:58.565Z,1.70
2018-12-08T00:20:27.864Z,2.00
2018-12-08T00:22:56.251Z,2.00
2018-12-08T00:25:24.655Z,1.43
2018-12-08T00:27:53.315Z,2.23
2018-12-08T00:30:32.903Z,1.47
2018-12-08T00:33:01.276Z,1.57
2018-12-08T00:35:29.571Z,1.73
2018-12-08T00:37:57.834Z,1.50
2018-12-08T00:40:27.214Z,1.27
2018-12-08T00:42:55.524Z,1.33
2018-12-08T00:45:23.891Z,1.80
2018-12-08T00:47:52.800Z,1.27
2018-12-08T00:50:21.170Z,1.50
2018-12-08T00:52:49.680Z,1.60
2018-12-08T00:55:19.022Z,1.47
2018-12-08T00:57:48.319Z,1.67
2018-12-08T01:00:16.612Z,1.50
2018-12-08T01:02:44.919Z,1.50
2018-12-08T01:05:14.021Z,1.47
2018-12-08T01:07:42.414Z,1.57
2018-12-08T01:10:17.254Z,1.30
2018-12-08T01:12:46.497Z,1.90
2018-12-08T01:15:14.876Z,1.50
2018-12-08T01:17:43.186Z,1.50
2018-12-08T01:20:11.655Z,1.33
2018-12-08T01:22:39.910Z,1.30
2018-12-08T01:25:08.617Z,1.10
2018-12-08T01:27:36.862Z,1.33
2018-12-08T01:30:06.150Z,1.47
2018-12-08T01:32:35.415Z,1.30
2018-12-08T01:35:04.017Z,1.30
2018-12-08T01:37:33.335Z,1.00
2018-12-08T01:40:02.767Z,1.70
2018-12-08T01:42:32.084Z,1.50
2018-12-08T01:45:00.342Z,1.30
2018-12-08T01:47:28.652Z,1.40
2018-12-08T01:49:56.961Z,1.40
2018-12-08T01:52:25.275Z,1.10
2018-12-08T01:54:54.631Z,1.63
2018-12-08T01:57:23.979Z,1.83
2018-12-08T01:59:52.348Z,1.77
2018-12-08T02:02:20.687Z,1.73
2018-12-08T02:04:48.992Z,1.43
2018-12-08T02:07:17.317Z,1.23
2018-12-08T02:09:46.756Z,1.20
2018-12-08T02:12:15.075Z,1.20
2018-12-08T02:14:43.390Z,1.13
2018-12-08T02:17:11.727Z,1.23
2018-12-08T02:19:40.034Z,1.30
2018-12-08T02:22:08.323Z,1.27
2018-12-08T02:24:36.622Z,1.40
2018-12-08T02:27:05.023Z,1.47
2018-12-08T02:29:33.315Z,1.20
2018-12-08T02:32:01.629Z,1.10
2018-12-08T02:34:31.287Z,1.13
2018-12-08T02:36:59.570Z,1.20
2018-12-08T02:39:28.921Z,1.20
2018-12-08T02:41:57.245Z,1.30
2018-12-08T02:44:25.528Z,1.30
2018-12-08T02:46:54.194Z,1.23
2018-12-08T02:49:22.488Z,1.10
2018-12-08T02:51:52.767Z,1.10
2018-12-08T02:54:21.080Z,1.50
2018-12-08T02:56:49.348Z,1.03
2018-12-08T02:59:17.798Z,1.00
2018-12-08T03:01:46.664Z,1.47
2018-12-08T03:04:14.993Z,0.93
2018-12-08T03:06:43.301Z,1.10
2018-12-08T03:09:11.623Z,1.00
2018-12-08T03:11:39.910Z,1.40
2018-12-08T03:14:08.343Z,1.20
2018-12-08T03:16:36.635Z,1.60
2018-12-08T03:19:04.927Z,1.13
2018-12-08T03:21:34.211Z,1.20
2018-12-08T03:24:02.585Z,1.00
2018-12-08T03:26:31.988Z,1.17
2018-12-08T03:29:00.391Z,0.90
2018-12-08T03:31:29.421Z,1.00
2018-12-08T03:33:58.724Z,1.03
2018-12-08T03:36:28.109Z,1.10
2018-12-08T03:38:56.495Z,0.90
2018-12-08T03:41:24.780Z,1.17
2018-12-08T03:43:53.072Z,0.90
2018-12-08T03:46:21.342Z,1.10
2018-12-08T03:48:49.643Z,1.00
2018-12-08T03:51:17.928Z,1.00
2018-12-08T03:53:46.225Z,1.10
2018-12-08T03:56:14.500Z,0.80
2018-12-08T03:58:42.806Z,1.00
2018-12-08T04:01:11.304Z,1.03
2018-12-08T04:03:39.599Z,1.10
2018-12-08T04:06:08.988Z,0.90
2018-12-08T04:08:37.312Z,0.87
2018-12-08T04:11:05.649Z,1.07
2018-12-08T04:13:33.955Z,0.80
2018-12-08T04:16:02.261Z,1.13
2018-12-08T04:18:30.590Z,1.60
2018-12-08T04:20:58.974Z,1.23
2018-12-08T04:23:27.259Z,0.93
2018-12-08T04:25:55.605Z,0.87
2018-12-08T04:28:23.879Z,0.93
2018-12-08T04:30:52.511Z,1.07
2018-12-08T04:33:20.785Z,0.90
2018-12-08T04:35:50.087Z,0.80
2018-12-08T04:38:18.364Z,0.80
2018-12-08T04:40:46.623Z,1.00
2018-12-08T04:43:14.904Z,0.90
2018-12-08T04:45:43.240Z,0.83
2018-12-08T04:48:11.630Z,0.77
2018-12-08T04:50:39.913Z,1.00
2018-12-08T04:53:08.207Z,0.90
2018-12-08T04:55:36.454Z,1.00
2018-12-08T04:58:04.748Z,0.80
2018-12-08T05:00:34.010Z,0.70
2018-12-08T05:03:02.303Z,0.90
2018-12-08T05:05:30.676Z,1.00
2018-12-08T05:07:58.998Z,0.80
2018-12-08T05:10:27.255Z,1.30
2018-12-08T05:12:55.520Z,0.87
2018-12-08T05:15:23.800Z,1.07
2018-12-08T05:17:52.239Z,1.00
2018-12-08T05:20:21.682Z,0.83
2018-12-08T05:22:50.179Z,0.97
2018-12-08T05:25:18.498Z,0.80
2018-12-08T05:27:46.834Z,1.20
2018-12-08T05:30:15.579Z,0.73
2018-12-08T05:32:43.933Z,1.00
2018-12-08T05:35:12.231Z,1.00
2018-12-08T05:37:40.533Z,0.97
2018-12-08T05:40:08.994Z,0.90
2018-12-08T05:42:37.324Z,1.07
2018-12-08T05:45:05.794Z,0.90
2018-12-08T05:47:34.155Z,1.07
2018-12-08T05:50:02.488Z,1.07
2018-12-08T05:52:30.755Z,1.00
2018-12-08T05:55:00.031Z,0.90
2018-12-08T05:57:28.314Z,1.10
2018-12-08T05:59:57.590Z,1.07
2018-12-08T06:02:25.973Z,1.10
2018-12-08T06:04:54.276Z,1.03
2018-12-08T06:07:22.525Z,0.90
2018-12-08T06:09:50.816Z,1.13
2018-12-08T06:12:19.569Z,1.00
2018-12-08T06:14:47.828Z,1.03
2018-12-08T06:17:16.147Z,1.30
2018-12-08T06:19:44.440Z,1.30
2018-12-08T06:22:12.740Z,1.20
2018-12-08T06:24:41.044Z,0.80
2018-12-08T06:27:17.391Z,1.30
2018-12-08T06:29:46.439Z,1.27
2018-12-08T06:32:14.722Z,1.40
2018-12-08T06:34:43.028Z,1.07
2018-12-08T06:37:11.292Z,1.10
2018-12-08T06:39:39.585Z,1.37
2018-12-08T06:42:07.860Z,1.23
2018-12-08T06:44:36.160Z,1.10
2018-12-08T06:47:04.527Z,1.23
2018-12-08T06:49:32.836Z,1.40
2018-12-08T06:52:02.282Z,1.13
2018-12-08T06:54:30.627Z,1.20
2018-12-08T06:56:58.894Z,1.20
2018-12-08T06:59:27.178Z,1.70
2018-12-08T07:01:56.581Z,1.30
2018-12-08T07:04:25.825Z,0.90
2018-12-08T07:06:55.103Z,1.40
2018-12-08T07:09:23.619Z,1.30
2018-12-08T07:11:51.939Z,1.13
2018-12-08T07:14:20.219Z,1.27
2018-12-08T07:16:48.540Z,1.00
2018-12-08T07:19:16.813Z,1.10
2018-12-08T07:21:45.108Z,1.20
2018-12-08T07:24:13.473Z,1.20
2018-12-08T07:26:41.759Z,1.20
2018-12-08T07:29:10.051Z,0.90
2018-12-08T07:31:38.439Z,1.37
2018-12-08T07:34:06.727Z,1.20
2018-12-08T07:36:36.633Z,1.43
2018-12-08T07:39:06.364Z,1.20
2018-12-08T07:41:34.627Z,1.20
2018-12-08T07:44:02.904Z,1.00
2018-12-08T07:46:31.169Z,1.47
2018-12-08T07:49:00.496Z,1.23
2018-12-08T07:51:28.801Z,0.93
2018-12-08T07:53:58.152Z,1.07
2018-12-08T07:56:26.436Z,1.27
2018-12-08T07:58:54.727Z,1.50
2018-12-08T08:01:22.996Z,1.00
2018-12-08T08:03:51.410Z,1.40
2018-12-08T08:06:19.820Z,1.03
2018-12-08T08:08:48.101Z,1.20
2018-12-08T08:11:17.427Z,1.40
2018-12-08T08:13:45.712Z,1.33
2018-12-08T08:16:14.007Z,1.30
2018-12-08T08:18:42.284Z,1.20
2018-12-08T08:21:10.659Z,1.33
2018-12-08T08:23:38.928Z,1.23
2018-12-08T08:26:08.179Z,1.00
2018-12-08T08:28:36.472Z,1.13
2018-12-08T08:31:04.835Z,1.23
2018-12-08T08:33:33.453Z,1.10
2018-12-08T08:36:01.815Z,1.23
2018-12-08T08:38:30.084Z,1.20
2018-12-08T08:40:58.391Z,1.57
2018-12-08T08:43:26.664Z,1.03
2018-12-08T08:45:54.969Z,1.03
2018-12-08T08:48:23.212Z,0.87
2018-12-08T08:50:51.478Z,1.20
2018-12-08T08:53:20.833Z,1.27
2018-12-08T08:55:50.807Z,1.10
2018-12-08T08:58:19.067Z,1.20
2018-12-08T09:00:47.371Z,1.37
2018-12-08T09:03:15.943Z,1.07
2018-12-08T09:05:44.283Z,1.00
2018-12-08T09:08:12.645Z,1.27
2018-12-08T09:10:41.219Z,1.03
2018-12-08T09:13:09.538Z,0.90
2018-12-08T09:15:37.928Z,1.00
2018-12-08T09:18:06.231Z,0.70
2018-12-08T09:20:34.552Z,1.20
2018-12-08T09:23:02.800Z,1.00
2018-12-08T09:25:31.263Z,0.90
2018-12-08T09:27:59.611Z,1.30
2018-12-08T09:30:28.008Z,1.00
2018-12-08T09:32:56.279Z,1.20
2018-12-08T09:35:24.553Z,1.10
2018-12-08T09:37:52.852Z,1.00
2018-12-08T09:40:22.436Z,1.40
2018-12-08T09:42:51.699Z,1.00
2018-12-08T09:45:20.339Z,1.20
2018-12-08T09:47:48.665Z,0.97
2018-12-08T09:50:16.941Z,1.20
2018-12-08T09:52:47.655Z,1.57
2018-12-08T09:55:17.165Z,1.20
2018-12-08T09:57:45.455Z,1.40
2018-12-08T10:00:13.887Z,1.03
2018-12-08T10:02:42.180Z,0.83
2018-12-08T10:05:10.594Z,1.17
2018-12-08T10:07:38.930Z,0.90
2018-12-08T10:10:08.523Z,0.90
2018-12-08T10:12:37.790Z,1.20
2018-12-08T10:15:06.188Z,1.00
2018-12-08T10:17:34.744Z,1.10
2018-12-08T10:20:03.159Z,1.00
2018-12-08T10:22:31.547Z,0.80
2018-12-08T10:24:59.956Z,1.20
2018-12-08T10:27:29.397Z,0.90
2018-12-08T10:29:57.701Z,1.10
2018-12-08T10:32:27.023Z,1.07
2018-12-08T10:34:55.460Z,1.20
2018-12-08T10:37:25.182Z,1.10
2018-12-08T10:39:54.471Z,0.90
2018-12-08T10:42:22.784Z,0.90
2018-12-08T10:44:52.128Z,1.23
2018-12-08T10:47:20.519Z,1.30
2018-12-08T10:49:48.798Z,1.00
2018-12-08T10:52:17.974Z,1.10
2018-12-08T10:54:46.295Z,0.90
2018-12-08T10:57:15.578Z,1.20
2018-12-08T10:59:43.954Z,1.40
2018-12-08T11:02:17.796Z,0.93
2018-12-08T11:04:46.075Z,1.50
2018-12-08T11:07:14.357Z,11.27
2018-12-08T11:09:42.675Z,40.67
2018-12-08T11:12:11.505Z,48.77
2018-12-08T11:14:39.907Z,31.00
2018-12-08T11:17:08.201Z,38.37
2018-12-08T11:19:36.607Z,37.67
2018-12-08T11:22:04.916Z,31.03
2018-12-08T11:24:33.221Z,30.87
2018-12-08T11:27:01.561Z,25.40
2018-12-08T11:29:29.883Z,23.90
2018-12-08T11:31:58.238Z,23.03
2018-12-08T11:34:26.705Z,19.07
2018-12-08T11:36:56.031Z,19.20
2018-12-08T11:39:24.352Z,19.13
2018-12-08T11:41:53.015Z,19.03
2018-12-08T11:44:22.316Z,18.67
2018-12-08T11:46:50.703Z,15.63
2018-12-08T11:49:18.981Z,15.93
2018-12-08T11:51:47.281Z,15.83
2018-12-08T11:54:15.642Z,15.40
2018-12-08T11:56:43.952Z,14.10
2018-12-08T11:59:14.044Z,13.40
2018-12-08T12:01:42.692Z,13.10
2018-12-08T12:04:11.092Z,13.50
2018-12-08T12:06:39.501Z,11.70
2018-12-08T12:09:09.524Z,13.10
2018-12-08T12:11:37.913Z,10.77
2018-12-08T12:14:06.897Z,11.00
2018-12-08T12:16:35.196Z,12.00
2018-12-08T12:19:03.512Z,11.40
2018-12-08T12:21:32.816Z,10.90
2018-12-08T12:24:02.884Z,10.47
2018-12-08T12:26:31.575Z,9.10
2018-12-08T12:28:59.912Z,9.73
2018-12-08T12:31:28.727Z,9.33
2018-12-08T12:33:57.049Z,9.83
2018-12-08T12:36:25.343Z,8.17
2018-12-08T12:38:53.713Z,6.97
2018-12-08T12:41:22.006Z,8.17
2018-12-08T12:43:51.227Z,8.13
2018-12-08T12:46:19.494Z,8.00
2018-12-08T12:48:47.779Z,7.27
2018-12-08T12:51:16.079Z,7.07
2018-12-08T12:53:44.559Z,7.43
2018-12-08T12:56:13.891Z,5.50
2018-12-08T12:58:42.807Z,6.17
2018-12-08T13:01:11.938Z,6.03
2018-12-08T13:03:40.951Z,6.90
2018-12-08T13:06:11.023Z,6.67
2018-12-08T13:08:40.119Z,5.77
2018-12-08T13:11:08.440Z,5.27
2018-12-08T13:13:37.063Z,6.47
2018-12-08T13:16:06.003Z,6.00
2018-12-08T13:18:35.334Z,5.87
2018-12-08T13:21:04.591Z,6.60
2018-12-08T13:23:33.593Z,5.63
2018-12-08T13:26:02.692Z,5.37
2018-12-08T13:28:31.832Z,4.67
2018-12-08T13:31:01.938Z,5.43
2018-12-08T13:33:32.702Z,5.13
2018-12-08T13:36:02.776Z,5.43
2018-12-08T13:38:31.050Z,4.97
2018-12-08T13:41:00.878Z,4.00
2018-12-08T13:43:29.817Z,5.30
2018-12-08T13:45:58.921Z,4.87
2018-12-08T13:48:29.009Z,5.20
2018-12-08T13:50:58.703Z,4.50
2018-12-08T13:53:27.003Z,4.63
2018-12-08T13:55:55.603Z,4.97
2018-12-08T13:58:23.912Z,4.67
2018-12-08T14:00:52.396Z,4.47
2018-12-08T14:03:20.765Z,3.90
2018-12-08T14:05:49.043Z,5.00
2018-12-08T14:08:18.309Z,4.30
2018-12-08T14:10:47.376Z,3.40
2018-12-08T14:13:15.647Z,3.73
2018-12-08T14:15:43.932Z,3.93
2018-12-08T14:18:12.244Z,3.60
2018-12-08T14:20:40.590Z,3.50
2018-12-08T14:23:10.056Z,3.90
2018-12-08T14:25:38.426Z,3.03
2018-12-08T14:28:08.031Z,3.20
2018-12-08T14:30:36.418Z,4.30
2018-12-08T14:33:04.703Z,3.23
2018-12-08T14:35:34.029Z,3.10
2018-12-08T14:38:03.324Z,3.70
2018-12-08T14:40:31.845Z,3.73
2018-12-08T14:43:00.803Z,3.80
2018-12-08T14:45:29.216Z,4.30
2018-12-08T14:47:57.513Z,3.00
2018-12-08T14:50:27.070Z,4.00
2018-12-08T14:52:56.367Z,3.20
2018-12-08T14:55:24.669Z,3.00
2018-12-08T14:57:53.311Z,4.03
2018-12-08T15:00:22.292Z,2.57
2018-12-08T15:02:51.602Z,3.80
2018-12-08T15:05:19.899Z,2.90
2018-12-08T15:07:48.202Z,3.10
2018-12-08T15:10:16.595Z,3.40
2018-12-08T15:12:44.922Z,2.60
2018-12-08T15:15:13.412Z,2.90
2018-12-08T15:17:41.989Z,3.07
2018-12-08T15:20:11.112Z,2.77
2018-12-08T15:22:39.489Z,3.70
2018-12-08T15:25:10.802Z,3.30
2018-12-08T15:27:40.100Z,2.73
2018-12-08T15:30:09.928Z,3.30
2018-12-08T15:32:38.316Z,2.67
2018-12-08T15:35:09.068Z,3.40
2018-12-08T15:37:37.712Z,3.30
2018-12-08T15:40:07.547Z,2.27
2018-12-08T15:42:36.376Z,2.20
2018-12-08T15:45:06.591Z,3.10
2018-12-08T15:47:34.907Z,2.97
2018-12-08T15:50:03.395Z,2.97
2018-12-08T15:52:31.802Z,2.43
2018-12-08T15:55:00.267Z,3.43
2018-12-08T15:57:28.591Z,2.70
2018-12-08T15:59:57.889Z,2.30
2018-12-08T16:02:26.222Z,2.40
2018-12-08T16:04:54.548Z,3.90
2018-12-08T16:07:22.868Z,3.30
2018-12-08T16:09:51.196Z,3.00
2018-12-08T16:12:20.518Z,2.80
2018-12-08T16:14:49.249Z,2.83
2018-12-08T16:17:18.552Z,1.87
2018-12-08T16:19:46.859Z,2.40
2018-12-08T16:22:15.143Z,3.10
2018-12-08T16:24:44.343Z,3.20
2018-12-08T16:27:12.733Z,2.10
2018-12-08T16:29:41.034Z,2.50
2018-12-08T16:32:09.326Z,3.00
2018-12-08T16:34:37.651Z,2.47
2018-12-08T16:37:06.017Z,2.23
2018-12-08T16:39:34.347Z,2.50
2018-12-08T16:42:02.674Z,2.53
2018-12-08T16:44:31.072Z,1.83
2018-12-08T16:46:59.336Z,2.30
2018-12-08T16:49:28.693Z,2.03
2018-12-08T16:51:57.079Z,1.90
2018-12-08T16:54:25.397Z,2.60
2018-12-08T16:56:53.779Z,2.00
2018-12-08T16:59:22.113Z,2.33
2018-12-08T17:01:53.367Z,2.20
2018-12-08T17:04:22.208Z,2.30
2018-12-08T17:06:50.689Z,2.03
2018-12-08T17:09:18.967Z,1.97
2018-12-08T17:11:47.540Z,2.30
2018-12-08T17:14:15.848Z,2.43
2018-12-08T17:16:45.200Z,2.50
2018-12-08T17:19:13.488Z,2.20
2018-12-08T17:21:41.940Z,2.40
2018-12-08T17:24:10.238Z,2.07
2018-12-08T17:26:38.534Z,1.90
2018-12-08T17:29:06.866Z,2.10
2018-12-08T17:31:35.165Z,2.60
2018-12-08T17:34:03.484Z,2.40
2018-12-08T17:36:32.832Z,1.67
2018-12-08T17:39:01.448Z,2.10
2018-12-08T17:41:29.992Z,2.03
2018-12-08T17:43:58.300Z,1.57
2018-12-08T17:46:26.683Z,2.23
2018-12-08T17:48:55.108Z,2.53
2018-12-08T17:51:23.501Z,2.00
2018-12-08T17:53:52.135Z,1.60
2018-12-08T17:56:20.504Z,1.77
2018-12-08T17:58:48.806Z,2.90
2018-12-08T18:01:17.196Z,1.90
2018-12-08T18:03:45.485Z,2.50
2018-12-08T18:06:13.795Z,2.40
2018-12-08T18:08:42.108Z,1.57
2018-12-08T18:11:10.455Z,1.73
2018-12-08T18:13:38.772Z,1.80
2018-12-08T18:16:07.221Z,1.57
2018-12-08T18:18:35.474Z,1.50
2018-12-08T18:21:05.035Z,2.30
2018-12-08T18:23:33.810Z,2.50
2018-12-08T18:26:02.160Z,1.50
2018-12-08T18:28:30.562Z,1.70
2018-12-08T18:30:58.851Z,2.30
2018-12-08T18:33:27.102Z,1.97
2018-12-08T18:35:57.139Z,2.03
2018-12-08T18:38:25.423Z,1.90
2018-12-08T18:40:53.740Z,2.47
2018-12-08T18:43:23.071Z,1.70
2018-12-08T18:45:51.400Z,1.43
2018-12-08T18:48:19.696Z,2.20
2018-12-08T18:50:47.982Z,1.60
2018-12-08T18:53:16.349Z,1.73
2018-12-08T18:55:44.642Z,2.43
2018-12-08T18:58:12.975Z,1.57
2018-12-08T19:00:41.754Z,1.97
2018-12-08T19:03:10.066Z,1.77
2018-12-08T19:05:38.364Z,2.23
2018-12-08T19:08:06.821Z,1.90
2018-12-08T19:10:36.493Z,1.83
2018-12-08T19:13:04.788Z,1.80
2018-12-08T19:15:33.079Z,2.67
2018-12-08T19:18:02.311Z,2.10
2018-12-08T19:20:30.593Z,1.90
2018-12-08T19:22:58.888Z,3.00
2018-12-08T19:25:28.320Z,1.87
2018-12-08T19:27:57.260Z,2.80
2018-12-08T19:30:25.643Z,1.93
2018-12-08T19:32:55.064Z,2.10
2018-12-08T19:37:57.162Z,2.33
2018-12-08T19:40:25.436Z,2.80
2018-12-08T19:42:53.830Z,1.93
2018-12-08T19:45:23.234Z,1.93
2018-12-08T19:47:51.506Z,2.17
2018-12-08T19:50:20.797Z,2.20
2018-12-08T19:52:50.135Z,2.47
2018-12-08T19:55:18.968Z,2.50
2018-12-08T19:57:47.341Z,2.60
2018-12-08T20:00:15.612Z,2.40
2018-12-08T20:02:45.262Z,2.43
2018-12-08T20:05:13.648Z,2.30
2018-12-08T20:07:41.988Z,2.03
2018-12-08T20:10:10.259Z,2.50
2018-12-08T20:12:38.661Z,2.10
2018-12-08T20:15:10.163Z,2.53
2018-12-08T20:17:38.513Z,1.80
2018-12-08T20:20:06.975Z,1.97
2018-12-08T20:22:35.281Z,2.03
2018-12-08T20:25:03.668Z,2.43
2018-12-08T20:27:32.644Z,2.20
2018-12-08T20:30:00.964Z,2.23
2018-12-08T20:32:29.549Z,2.00
2018-12-08T20:34:57.835Z,2.33
2018-12-08T20:37:26.530Z,1.83
2018-12-08T20:39:54.916Z,1.60
2018-12-08T20:42:23.199Z,1.73
2018-12-08T20:44:51.500Z,2.10
2018-12-08T20:47:20.047Z,2.33
2018-12-08T20:49:50.107Z,2.17
2018-12-08T20:52:18.364Z,2.50
2018-12-08T20:54:46.670Z,2.47
2018-12-08T20:57:15.920Z,2.60
2018-12-08T20:59:44.265Z,2.73
2018-12-08T21:02:12.605Z,2.83
2018-12-08T21:04:41.075Z,2.73
2018-12-08T21:07:09.502Z,2.37
2018-12-08T21:09:37.781Z,2.20
2018-12-08T21:12:07.169Z,2.43
2018-12-08T21:14:35.535Z,2.43
2018-12-08T21:17:03.921Z,2.70
2018-12-08T21:19:33.030Z,2.43
2018-12-08T21:22:01.327Z,2.50
2018-12-08T21:24:30.043Z,2.40
2018-12-08T21:26:58.533Z,3.00
2018-12-08T21:29:26.795Z,3.63
2018-12-08T21:31:55.098Z,3.00
2018-12-08T21:34:23.375Z,3.23
2018-12-08T21:36:52.768Z,3.30
2018-12-08T21:39:21.077Z,2.90
2018-12-08T21:41:49.339Z,3.33
2018-12-08T21:44:17.655Z,3.00
2018-12-08T21:46:45.952Z,3.30
2018-12-08T21:49:14.281Z,2.80
2018-12-08T21:51:42.579Z,3.40
2018-12-08T21:54:10.911Z,2.70
2018-12-08T21:56:39.231Z,3.17
2018-12-08T21:59:08.662Z,2.80
2018-12-08T22:01:37.076Z,3.13
2018-12-08T22:04:06.407Z,2.57
2018-12-08T22:06:34.691Z,2.73
2018-12-08T22:09:03.195Z,2.57
2018-12-08T22:11:32.644Z,2.80
2018-12-08T22:14:00.949Z,3.20
2018-12-08T22:16:29.223Z,2.37
2018-12-08T22:18:58.139Z,2.60
2018-12-08T22:21:26.474Z,2.60
2018-12-08T22:23:55.763Z,2.60
2018-12-08T22:26:24.184Z,2.77
2018-12-08T22:28:52.538Z,2.87
2018-12-08T22:31:20.879Z,2.67
2018-12-08T22:33:49.237Z,2.57
2018-12-08T22:36:18.271Z,2.63
2018-12-08T22:38:47.184Z,2.67
2018-12-08T22:41:15.531Z,2.40
2018-12-08T22:43:44.865Z,2.80
2018-12-08T22:46:13.261Z,2.90
2018-12-08T22:48:42.680Z,2.50
2018-12-08T22:51:11.003Z,2.70
2018-12-08T22:53:39.328Z,2.97
2018-12-08T22:56:08.029Z,2.43
2018-12-08T22:58:36.300Z,2.20
2018-12-08T23:01:04.852Z,2.47
2018-12-08T23:03:34.178Z,2.90
2018-12-08T23:06:03.691Z,2.13
2018-12-08T23:08:32.036Z,2.13
2018-12-08T23:11:01.513Z,2.40
2018-12-08T23:13:30.040Z,2.07
2018-12-08T23:15:59.355Z,2.37
2018-12-08T23:18:27.652Z,1.87
2018-12-08T23:20:55.967Z,2.13
2018-12-08T23:23:24.274Z,2.30
2018-12-08T23:25:53.175Z,2.23
2018-12-08T23:28:21.608Z,2.17
2018-12-08T23:30:51.344Z,2.53
2018-12-08T23:33:20.171Z,2.87
2018-12-08T23:35:48.555Z,2.20
2018-12-08T23:38:16.880Z,2.30
2018-12-08T23:40:45.671Z,2.33
2018-12-08T23:43:14.056Z,2.60
2018-12-08T23:45:43.391Z,2.57
2018-12-08T23:48:11.690Z,2.10
2018-12-08T23:50:39.989Z,2.43
2018-12-08T23:53:08.392Z,2.50
2018-12-08T23:55:36.691Z,1.93
2018-12-08T23:58:05.000Z,2.10
